sensor_id;sensor_type;location;lat;lon;timestamp;temperature;humidity
5956;DHT22;3004;48.080;11.600;2023-04-01T00:42:51;6.80;99.90
5956;DHT22;3004;48.080;11.600;2023-04-01T00:45:28;6.80;99.90
5956;DHT22;3004;48.080;11.600;2023-04-01T00:47:56;6.90;99.90
5956;DHT22;3004;48.080;11.600;2023-04-01T00:50:26;6.90;99.90
5956;DHT22;3004;48.080;11.600;2023-04-01T00:52:55;6.80;99.90
5956;DHT22;3004;48.080;11.600;2023-04-01T00:55:25;6.80;99.90
5956;DHT22;3004;48.080;11.600;2023-04-01T01:25:01;7.10;99.90
5956;DHT22;3004;48.080;11.600;2023-04-01T01:33:43;7.20;99.90
5956;DHT22;3004;48.080;11.600;2023-04-01T01:36:14;7.20;99.90
5956;DHT22;3004;48.080;11.600;2023-04-01T01:38:42;7.10;99.90
5956;DHT22;3004;48.080;11.600;2023-04-01T01:41:11;7.10;99.90
5956;DHT22;3004;48.080;11.600;2023-04-01T01:43:42;7.10;99.90
5956;DHT22;3004;48.080;11.600;2023-04-01T01:46:11;7.10;99.90
5956;DHT22;3004;48.080;11.600;2023-04-01T01:53:38;7.10;99.90
5956;DHT22;3004;48.080;11.600;2023-04-01T01:56:05;7.00;99.90
5956;DHT22;3004;48.080;11.600;2023-04-01T02:16:11;7.00;99.90
5956;DHT22;3004;48.080;11.600;2023-04-01T02:18:39;7.20;99.90
5956;DHT22;3004;48.080;11.600;2023-04-01T02:21:10;7.10;99.90
5956;DHT22;3004;48.080;11.600;2023-04-01T02:23:38;7.10;99.90
5956;DHT22;3004;48.080;11.600;2023-04-01T03:18:04;6.90;99.90
5956;DHT22;3004;48.080;11.600;2023-04-01T04:00:04;6.70;99.90
5956;DHT22;3004;48.080;11.600;2023-04-01T04:12:22;6.60;99.90
5956;DHT22;3004;48.080;11.600;2023-04-01T04:19:43;6.60;99.90
5956;DHT22;3004;48.080;11.600;2023-04-01T04:32:02;6.70;99.90
5956;DHT22;3004;48.080;11.600;2023-04-01T04:34:32;6.60;99.90
5956;DHT22;3004;48.080;11.600;2023-04-01T04:41:55;6.70;99.90
5956;DHT22;3004;48.080;11.600;2023-04-01T04:44:23;6.70;99.90
5956;DHT22;3004;48.080;11.600;2023-04-01T04:46:51;6.70;99.90
5956;DHT22;3004;48.080;11.600;2023-04-01T04:49:18;6.60;99.90
5956;DHT22;3004;48.080;11.600;2023-04-01T04:51:45;6.60;99.90
5956;DHT22;3004;48.080;11.600;2023-04-01T04:54:12;6.60;99.90
5956;DHT22;3004;48.080;11.600;2023-04-01T05:06:30;6.70;99.90
5956;DHT22;3004;48.080;11.600;2023-04-01T05:08:57;6.80;99.90
5956;DHT22;3004;48.080;11.600;2023-04-01T05:11:24;6.80;99.90
5956;DHT22;3004;48.080;11.600;2023-04-01T05:13:52;7.00;99.90
5956;DHT22;3004;48.080;11.600;2023-04-01T05:16:21;6.90;99.90
5956;DHT22;3004;48.080;11.600;2023-04-01T05:18:51;6.90;99.90
5956;DHT22;3004;48.080;11.600;2023-04-01T05:21:19;7.00;99.90
5956;DHT22;3004;48.080;11.600;2023-04-01T05:23:46;7.00;99.90
5956;DHT22;3004;48.080;11.600;2023-04-01T05:26:14;7.00;99.90
5956;DHT22;3004;48.080;11.600;2023-04-01T05:28:41;7.10;99.90
5956;DHT22;3004;48.080;11.600;2023-04-01T05:31:09;7.10;99.90
5956;DHT22;3004;48.080;11.600;2023-04-01T05:33:36;7.20;99.90
5956;DHT22;3004;48.080;11.600;2023-04-01T05:36:11;7.30;99.90
5956;DHT22;3004;48.080;11.600;2023-04-01T05:38:40;7.20;99.90
5956;DHT22;3004;48.080;11.600;2023-04-01T05:41:07;7.30;99.90
5956;DHT22;3004;48.080;11.600;2023-04-01T05:43:41;7.30;99.90
5956;DHT22;3004;48.080;11.600;2023-04-01T05:46:10;7.30;99.90
5956;DHT22;3004;48.080;11.600;2023-04-01T05:48:37;7.30;99.90
5956;DHT22;3004;48.080;11.600;2023-04-01T05:51:11;7.40;99.90
5956;DHT22;3004;48.080;11.600;2023-04-01T05:53:41;7.40;99.90
5956;DHT22;3004;48.080;11.600;2023-04-01T05:56:08;7.40;99.90
5956;DHT22;3004;48.080;11.600;2023-04-01T05:58:36;7.50;99.90
5956;DHT22;3004;48.080;11.600;2023-04-01T06:01:08;7.50;99.90
5956;DHT22;3004;48.080;11.600;2023-04-01T06:03:36;7.50;99.90
5956;DHT22;3004;48.080;11.600;2023-04-01T06:06:04;7.70;99.90
5956;DHT22;3004;48.080;11.600;2023-04-01T06:08:37;7.70;99.90
5956;DHT22;3004;48.080;11.600;2023-04-01T06:11:16;7.70;99.90
5956;DHT22;3004;48.080;11.600;2023-04-01T06:14:03;7.70;99.90
5956;DHT22;3004;48.080;11.600;2023-04-01T06:16:44;7.70;99.90
5956;DHT22;3004;48.080;11.600;2023-04-01T06:19:28;7.60;99.90
5956;DHT22;3004;48.080;11.600;2023-04-01T06:22:29;7.60;99.90
5956;DHT22;3004;48.080;11.600;2023-04-01T06:25:12;7.70;99.90
5956;DHT22;3004;48.080;11.600;2023-04-01T06:28:10;7.70;99.90
5956;DHT22;3004;48.080;11.600;2023-04-01T06:30:50;7.80;99.90
5956;DHT22;3004;48.080;11.600;2023-04-01T06:36:39;7.80;99.90
5956;DHT22;3004;48.080;11.600;2023-04-01T06:39:30;7.90;99.90
5956;DHT22;3004;48.080;11.600;2023-04-01T06:42:15;7.90;99.90
5956;DHT22;3004;48.080;11.600;2023-04-01T06:44:59;7.90;99.90
5956;DHT22;3004;48.080;11.600;2023-04-01T06:47:37;8.00;99.90
5956;DHT22;3004;48.080;11.600;2023-04-01T06:50:15;8.00;99.90
5956;DHT22;3004;48.080;11.600;2023-04-01T06:52:56;8.00;99.90
5956;DHT22;3004;48.080;11.600;2023-04-01T06:55:27;8.10;99.90
5956;DHT22;3004;48.080;11.600;2023-04-01T06:58:00;8.10;99.90
5956;DHT22;3004;48.080;11.600;2023-04-01T07:00:34;8.10;99.90
5956;DHT22;3004;48.080;11.600;2023-04-01T07:03:07;8.20;99.90
5956;DHT22;3004;48.080;11.600;2023-04-01T07:05:37;8.40;99.90
5956;DHT22;3004;48.080;11.600;2023-04-01T07:08:09;8.50;99.90
5956;DHT22;3004;48.080;11.600;2023-04-01T07:10:43;8.70;99.90
5956;DHT22;3004;48.080;11.600;2023-04-01T07:13:16;8.70;99.90
5956;DHT22;3004;48.080;11.600;2023-04-01T07:16:02;8.70;99.90
5956;DHT22;3004;48.080;11.600;2023-04-01T07:18:34;8.60;99.90
5956;DHT22;3004;48.080;11.600;2023-04-01T07:21:04;8.50;99.90
5956;DHT22;3004;48.080;11.600;2023-04-01T07:23:40;8.70;99.90
5956;DHT22;3004;48.080;11.600;2023-04-01T07:26:17;8.70;99.90
5956;DHT22;3004;48.080;11.600;2023-04-01T07:28:45;8.70;99.90
5956;DHT22;3004;48.080;11.600;2023-04-01T07:34:54;8.80;99.90
5956;DHT22;3004;48.080;11.600;2023-04-01T07:37:30;8.80;99.90
5956;DHT22;3004;48.080;11.600;2023-04-01T07:40:11;8.90;99.90
5956;DHT22;3004;48.080;11.600;2023-04-01T07:42:53;9.00;99.90
5956;DHT22;3004;48.080;11.600;2023-04-01T07:45:28;9.00;99.90
5956;DHT22;3004;48.080;11.600;2023-04-01T07:48:06;9.20;99.90
5956;DHT22;3004;48.080;11.600;2023-04-01T07:50:41;9.10;99.90
5956;DHT22;3004;48.080;11.600;2023-04-01T07:53:16;9.30;99.90
5956;DHT22;3004;48.080;11.600;2023-04-01T07:55:52;9.50;99.90
5956;DHT22;3004;48.080;11.600;2023-04-01T07:58:26;9.60;99.90
5956;DHT22;3004;48.080;11.600;2023-04-01T08:01:06;9.40;99.90
5956;DHT22;3004;48.080;11.600;2023-04-01T08:03:57;9.20;99.90
5956;DHT22;3004;48.080;11.600;2023-04-01T08:06:35;9.40;99.90
5956;DHT22;3004;48.080;11.600;2023-04-01T08:09:12;9.20;99.90
5956;DHT22;3004;48.080;11.600;2023-04-01T08:11:55;9.30;99.90
5956;DHT22;3004;48.080;11.600;2023-04-01T08:14:32;9.20;99.90
5956;DHT22;3004;48.080;11.600;2023-04-01T08:17:03;9.30;99.90
5956;DHT22;3004;48.080;11.600;2023-04-01T08:19:44;9.30;99.90
5956;DHT22;3004;48.080;11.600;2023-04-01T08:22:21;9.30;99.90
5956;DHT22;3004;48.080;11.600;2023-04-01T08:24:56;9.50;99.90
5956;DHT22;3004;48.080;11.600;2023-04-01T08:27:28;9.40;99.90
5956;DHT22;3004;48.080;11.600;2023-04-01T08:30:01;9.70;99.90
5956;DHT22;3004;48.080;11.600;2023-04-01T08:32:32;9.60;99.90
5956;DHT22;3004;48.080;11.600;2023-04-01T08:35:14;9.70;99.90
5956;DHT22;3004;48.080;11.600;2023-04-01T08:37:45;9.80;99.90
5956;DHT22;3004;48.080;11.600;2023-04-01T08:40:28;9.80;99.90
5956;DHT22;3004;48.080;11.600;2023-04-01T08:43:07;9.90;99.90
5956;DHT22;3004;48.080;11.600;2023-04-01T08:45:48;10.10;99.90
5956;DHT22;3004;48.080;11.600;2023-04-01T08:48:31;10.20;99.90
5956;DHT22;3004;48.080;11.600;2023-04-01T08:51:32;10.10;99.90
5956;DHT22;3004;48.080;11.600;2023-04-01T08:57:06;10.10;99.90
5956;DHT22;3004;48.080;11.600;2023-04-01T08:59:56;10.30;99.90
5956;DHT22;3004;48.080;11.600;2023-04-01T09:02:59;10.40;99.90
5956;DHT22;3004;48.080;11.600;2023-04-01T09:10:57;10.30;99.90
5956;DHT22;3004;48.080;11.600;2023-04-01T09:13:36;10.20;99.90
5956;DHT22;3004;48.080;11.600;2023-04-01T09:24:56;10.60;99.90
5956;DHT22;3004;48.080;11.600;2023-04-01T09:43:57;11.00;99.90
5956;DHT22;3004;48.080;11.600;2023-04-01T09:46:39;11.00;99.90
5956;DHT22;3004;48.080;11.600;2023-04-01T10:48:13;11.20;99.90
5956;DHT22;3004;48.080;11.600;2023-04-01T10:53:40;11.30;99.90
5956;DHT22;3004;48.080;11.600;2023-04-01T11:59:36;8.30;99.90
5956;DHT22;3004;48.080;11.600;2023-04-01T12:20:33;8.10;99.90
5956;DHT22;3004;48.080;11.600;2023-04-01T12:30:55;8.10;99.90
5956;DHT22;3004;48.080;11.600;2023-04-01T12:33:51;8.10;99.90
5956;DHT22;3004;48.080;11.600;2023-04-01T12:36:37;8.00;99.90
5956;DHT22;3004;48.080;11.600;2023-04-01T12:39:25;8.00;99.90
5956;DHT22;3004;48.080;11.600;2023-04-01T12:42:03;7.90;99.90
5956;DHT22;3004;48.080;11.600;2023-04-01T12:45:00;7.80;99.90
5956;DHT22;3004;48.080;11.600;2023-04-01T12:48:00;7.80;99.90
5956;DHT22;3004;48.080;11.600;2023-04-01T12:53:41;7.70;99.90
5956;DHT22;3004;48.080;11.600;2023-04-01T12:56:23;7.70;99.90
5956;DHT22;3004;48.080;11.600;2023-04-01T12:59:09;7.70;99.90
5956;DHT22;3004;48.080;11.600;2023-04-01T13:02:07;7.70;99.90
5956;DHT22;3004;48.080;11.600;2023-04-01T13:05:10;7.60;99.90
5956;DHT22;3004;48.080;11.600;2023-04-01T13:08:04;7.70;99.90
5956;DHT22;3004;48.080;11.600;2023-04-01T13:11:07;7.70;99.90
5956;DHT22;3004;48.080;11.600;2023-04-01T13:13:58;7.60;99.90
5956;DHT22;3004;48.080;11.600;2023-04-01T13:16:31;7.50;99.90
5956;DHT22;3004;48.080;11.600;2023-04-01T13:19:05;7.60;99.90
5956;DHT22;3004;48.080;11.600;2023-04-01T13:21:40;7.50;99.90
5956;DHT22;3004;48.080;11.600;2023-04-01T13:24:18;7.60;99.90
5956;DHT22;3004;48.080;11.600;2023-04-01T13:27:02;7.70;99.90
5956;DHT22;3004;48.080;11.600;2023-04-01T13:29:36;7.70;99.90
5956;DHT22;3004;48.080;11.600;2023-04-01T13:32:18;7.70;99.90
5956;DHT22;3004;48.080;11.600;2023-04-01T13:34:55;7.70;99.90
5956;DHT22;3004;48.080;11.600;2023-04-01T13:37:49;7.70;99.90
5956;DHT22;3004;48.080;11.600;2023-04-01T13:40:33;7.60;99.90
5956;DHT22;3004;48.080;11.600;2023-04-01T13:43:19;7.50;99.90
5956;DHT22;3004;48.080;11.600;2023-04-01T13:46:17;7.50;99.90
5956;DHT22;3004;48.080;11.600;2023-04-01T13:49:07;7.40;99.90
5956;DHT22;3004;48.080;11.600;2023-04-01T13:57:39;7.40;99.90
5956;DHT22;3004;48.080;11.600;2023-04-01T14:12:14;7.80;99.90
5956;DHT22;3004;48.080;11.600;2023-04-01T14:23:29;7.60;99.90
5956;DHT22;3004;48.080;11.600;2023-04-01T14:31:59;7.60;99.90
5956;DHT22;3004;48.080;11.600;2023-04-01T14:48:53;8.00;99.90
5956;DHT22;3004;48.080;11.600;2023-04-01T14:51:32;8.00;99.90
5956;DHT22;3004;48.080;11.600;2023-04-01T14:54:05;7.90;99.90
5956;DHT22;3004;48.080;11.600;2023-04-01T16:24:31;9.00;99.90
5956;DHT22;3004;48.080;11.600;2023-04-01T16:38:22;9.00;99.90
5956;DHT22;3004;48.080;11.600;2023-04-01T16:49:33;8.90;99.90
5956;DHT22;3004;48.080;11.600;2023-04-01T17:28:50;8.60;99.90
5956;DHT22;3004;48.080;11.600;2023-04-01T17:31:33;8.60;99.90
5956;DHT22;3004;48.080;11.600;2023-04-01T17:55:51;8.60;99.90
5956;DHT22;3004;48.080;11.600;2023-04-01T18:22:16;8.50;99.90
5956;DHT22;3004;48.080;11.600;2023-04-01T18:24:56;8.40;99.90
5956;DHT22;3004;48.080;11.600;2023-04-01T18:27:28;8.30;99.90
5956;DHT22;3004;48.080;11.600;2023-04-01T18:30:11;8.30;99.90
5956;DHT22;3004;48.080;11.600;2023-04-01T18:32:59;8.20;99.90
5956;DHT22;3004;48.080;11.600;2023-04-01T18:56:48;7.50;99.90
5956;DHT22;3004;48.080;11.600;2023-04-01T18:59:25;7.50;99.90
5956;DHT22;3004;48.080;11.600;2023-04-01T19:02:13;7.50;99.90
5956;DHT22;3004;48.080;11.600;2023-04-01T19:04:52;7.60;99.90
5956;DHT22;3004;48.080;11.600;2023-04-01T19:07:47;7.60;99.90
5956;DHT22;3004;48.080;11.600;2023-04-01T19:10:42;7.50;99.90
5956;DHT22;3004;48.080;11.600;2023-04-01T19:13:21;7.60;99.90
5956;DHT22;3004;48.080;11.600;2023-04-01T19:16:11;7.60;99.90
5956;DHT22;3004;48.080;11.600;2023-04-01T19:21:46;7.70;99.90
5956;DHT22;3004;48.080;11.600;2023-04-01T19:24:41;7.70;99.90
5956;DHT22;3004;48.080;11.600;2023-04-01T19:27:25;7.70;99.90
5956;DHT22;3004;48.080;11.600;2023-04-01T21:11:22;7.30;99.90
5956;DHT22;3004;48.080;11.600;2023-04-01T22:46:23;7.40;99.90
5956;DHT22;3004;48.080;11.600;2023-04-01T23:04:58;7.50;99.90
5956;DHT22;3004;48.080;11.600;2023-04-01T23:42:05;7.30;99.90
5956;DHT22;3004;48.080;11.600;2023-04-01T23:44:41;7.40;99.90
5956;DHT22;3004;48.080;11.600;2023-04-01T23:47:16;7.40;99.90
5956;DHT22;3004;48.080;11.600;2023-04-01T23:49:58;7.40;99.90
5956;DHT22;3004;48.080;11.600;2023-04-01T23:52:29;7.40;99.90
5956;DHT22;3004;48.080;11.600;2023-04-01T23:55:03;7.40;99.90
5956;DHT22;3004;48.080;11.600;2023-04-01T23:57:35;7.50;99.90
